createdAt,value
2017-05-01T00:01:09.853Z,30.57
2017-05-01T00:02:20.125Z,30.77
2017-05-01T00:03:30.075Z,30.57
2017-05-01T00:04:40.018Z,30.38
2017-05-01T00:05:50.278Z,30.28
2017-05-01T00:07:00.529Z,30.29
2017-05-01T00:08:10.467Z,30.47
2017-05-01T00:09:20.414Z,30.28
2017-05-01T00:10:30.671Z,30.28
2017-05-01T00:11:40.921Z,30.28
2017-05-01T00:12:50.862Z,30.47
2017-05-01T00:14:00.804Z,30.18
2017-05-01T00:15:10.428Z,30.08
2017-05-01T00:16:20.373Z,30.47
2017-05-01T00:17:30.311Z,30.57
2017-05-01T00:18:40.267Z,30.47
2017-05-01T00:19:50.214Z,30.47
2017-05-01T00:21:00.474Z,30.08
2017-05-01T00:22:10.429Z,30.08
2017-05-01T00:23:19.750Z,30.38
2017-05-01T00:24:29.387Z,29.99
2017-05-01T00:25:39.678Z,30.85
2017-05-01T00:26:49.300Z,29.9
2017-05-01T00:27:59.566Z,30.18
2017-05-01T00:29:09.518Z,30.57
2017-05-01T00:30:19.775Z,29.8
2017-05-01T00:31:29.402Z,30.18
2017-05-01T00:32:39.665Z,29.9
2017-05-01T00:33:49.937Z,30.18
2017-05-01T00:34:59.883Z,29.7
2017-05-01T00:36:09.823Z,30.18
2017-05-01T00:37:19.772Z,30.18
2017-05-01T00:38:29.728Z,30.08
2017-05-01T00:39:39.993Z,29.9
2017-05-01T00:40:49.940Z,29.99
2017-05-01T00:42:00.202Z,29.9
2017-05-01T00:43:10.460Z,30.18
2017-05-01T00:44:19.781Z,29.99
2017-05-01T00:45:30.043Z,29.99
2017-05-01T00:46:40.305Z,29.9
2017-05-01T00:47:50.562Z,29.99
2017-05-01T00:49:00.817Z,29.99
2017-05-01T00:50:10.765Z,30.18
2017-05-01T00:51:21.020Z,30.08
2017-05-01T00:52:31.273Z,30.38
2017-05-01T00:53:41.214Z,29.99
2017-05-01T00:54:51.464Z,30.08
2017-05-01T00:56:01.422Z,30.18
2017-05-01T00:57:11.366Z,30.18
2017-05-01T00:58:21.630Z,30.38
2017-05-01T00:59:31.578Z,29.99
2017-05-01T01:00:41.527Z,30.18
2017-05-01T01:01:51.476Z,29.9
2017-05-01T01:03:01.422Z,30.66
2017-05-01T01:04:11.705Z,30.18
2017-05-01T01:05:21.976Z,30.28
2017-05-01T01:06:32.239Z,29.99
2017-05-01T01:07:42.189Z,29.7
2017-05-01T01:08:52.445Z,30.28
2017-05-01T01:10:02.712Z,30.18
2017-05-01T01:11:12.972Z,30.08
2017-05-01T01:12:23.230Z,30.18
2017-05-01T01:13:33.498Z,30.08
2017-05-01T01:14:43.455Z,30.38
2017-05-01T01:15:53.403Z,29.9
2017-05-01T01:17:03.664Z,29.9
2017-05-01T01:18:13.298Z,30.28
2017-05-01T01:19:23.299Z,29.9
2017-05-01T01:20:33.292Z,30.28
2017-05-01T01:21:43.236Z,29.9
2017-05-01T01:22:53.499Z,30.18
2017-05-01T01:24:03.752Z,30.28
2017-05-01T01:25:13.693Z,30.28
2017-05-01T01:26:23.635Z,29.41
2017-05-01T01:27:33.594Z,30.47
2017-05-01T01:28:43.534Z,30.38
2017-05-01T01:29:53.800Z,29.9
2017-05-01T01:31:03.431Z,30.38
2017-05-01T01:32:13.375Z,30.38
2017-05-01T01:33:23.631Z,29.9
2017-05-01T01:34:33.574Z,29.32
2017-05-01T01:35:43.826Z,30.28
2017-05-01T01:36:53.764Z,30.38
2017-05-01T01:38:04.030Z,30.08
2017-05-01T01:39:13.658Z,30.18
2017-05-01T01:40:23.917Z,30.08
2017-05-01T01:41:34.170Z,30.18
2017-05-01T01:42:44.441Z,30.18
2017-05-01T01:43:54.398Z,30.08
2017-05-01T01:45:04.656Z,30.18
2017-05-01T01:46:14.596Z,30.08
2017-05-01T01:47:24.857Z,29.9
2017-05-01T01:48:35.118Z,29.51
2017-05-01T01:49:45.067Z,30.38
2017-05-01T01:50:55.011Z,29.99
2017-05-01T01:52:04.650Z,30.08
2017-05-01T01:53:14.276Z,29.51
2017-05-01T01:54:24.227Z,30.08
2017-05-01T01:55:33.857Z,29.9
2017-05-01T01:56:44.112Z,29.99
2017-05-01T01:57:54.370Z,29.8
2017-05-01T01:59:04.018Z,30.28
2017-05-01T02:00:13.960Z,30.28
2017-05-01T02:01:24.228Z,29.9
2017-05-01T02:02:33.855Z,29.9
2017-05-01T02:03:44.114Z,30.08
2017-05-01T02:04:54.374Z,29.99
2017-05-01T02:06:04.624Z,29.99
2017-05-01T02:07:14.909Z,29.99
2017-05-01T02:08:25.157Z,30.28
2017-05-01T02:09:35.413Z,30.28
2017-05-01T02:10:45.666Z,29.9
2017-05-01T02:11:55.864Z,29.99
2017-05-01T02:13:05.803Z,29.99
2017-05-01T02:14:15.436Z,29.99
2017-05-01T02:15:25.393Z,29.99
2017-05-01T02:16:35.336Z,29.99
2017-05-01T02:17:44.967Z,29.9
2017-05-01T02:18:54.918Z,29.99
2017-05-01T02:20:05.187Z,29.99
2017-05-01T02:21:14.822Z,29.8
2017-05-01T02:22:25.078Z,29.8
2017-05-01T02:23:35.345Z,30.18
2017-05-01T02:24:45.604Z,29.61
2017-05-01T02:25:55.545Z,29.51
2017-05-01T02:27:05.492Z,29.61
2017-05-01T02:28:15.755Z,29.32
2017-05-01T02:29:25.707Z,29.32
2017-05-01T02:30:35.982Z,29.32
2017-05-01T02:31:46.247Z,29.22
2017-05-01T02:32:56.508Z,29.61
2017-05-01T02:34:06.451Z,29.7
2017-05-01T02:35:15.450Z,29.61
2017-05-01T02:36:25.771Z,29.41
2017-05-01T02:37:36.028Z,29.51
2017-05-01T02:38:46.289Z,29.9
2017-05-01T02:39:56.594Z,30.08
2017-05-01T02:41:06.533Z,29.61
2017-05-01T02:42:16.788Z,29.61
2017-05-01T02:43:27.049Z,29.41
2017-05-01T02:44:37.303Z,29.51
2017-05-01T02:45:47.558Z,29.41
2017-05-01T02:46:57.506Z,29.32
2017-05-01T02:48:07.764Z,29.8
2017-05-01T02:49:17.713Z,29.99
2017-05-01T02:50:27.652Z,29.32
2017-05-01T02:51:37.592Z,29.99
2017-05-01T02:52:46.908Z,30.28
2017-05-01T02:53:57.179Z,29.9
2017-05-01T02:55:07.431Z,29.7
2017-05-01T02:56:17.376Z,29.99
2017-05-01T02:57:27.319Z,29.99
2017-05-01T02:58:37.604Z,29.7
2017-05-01T02:59:47.863Z,29.61
2017-05-01T03:00:58.119Z,29.61
2017-05-01T03:02:07.438Z,29.41
2017-05-01T03:03:17.698Z,29.9
2017-05-01T03:04:27.644Z,29.7
2017-05-01T03:05:37.592Z,29.51
2017-05-01T03:06:47.850Z,29.32
2017-05-01T03:07:57.801Z,29.32
2017-05-01T03:09:08.066Z,29.22
2017-05-01T03:10:18.323Z,29.7
2017-05-01T03:11:28.582Z,29.41
2017-05-01T03:12:38.542Z,29.51
2017-05-01T03:13:48.492Z,28.74
2017-05-01T03:14:58.445Z,28.53
2017-05-01T03:16:08.073Z,29.59
2017-05-01T03:17:18.023Z,29.21
2017-05-01T03:18:27.966Z,29.4
2017-05-01T03:19:38.238Z,29.49
2017-05-01T03:20:48.491Z,29.21
2017-05-01T03:21:58.439Z,29.61
2017-05-01T03:23:08.381Z,29.41
2017-05-01T03:24:18.648Z,29.03
2017-05-01T03:25:28.272Z,29.41
2017-05-01T03:26:38.209Z,29.51
2017-05-01T03:27:47.841Z,29.22
2017-05-01T03:28:57.785Z,29.61
2017-05-01T03:30:07.730Z,29.4
2017-05-01T03:31:17.356Z,29.51
2017-05-01T03:32:27.608Z,29.41
2017-05-01T03:33:37.863Z,29.7
2017-05-01T03:34:47.840Z,29.51
2017-05-01T03:35:58.100Z,29.51
2017-05-01T03:37:08.360Z,29.51
2017-05-01T03:38:18.628Z,29.22
2017-05-01T03:39:28.572Z,29.51
2017-05-01T03:40:38.512Z,29.41
2017-05-01T03:41:48.768Z,29.32
2017-05-01T03:42:59.025Z,29.32
2017-05-01T03:44:08.978Z,29.22
2017-05-01T03:45:18.933Z,29.22
2017-05-01T03:46:28.884Z,29.13
2017-05-01T03:47:38.829Z,29.51
2017-05-01T03:48:48.466Z,29.99
2017-05-01T03:49:58.415Z,29.99
2017-05-01T03:51:08.679Z,29.41
2017-05-01T03:52:18.942Z,29.7
2017-05-01T03:53:29.211Z,29.22
2017-05-01T03:54:38.844Z,29.61
2017-05-01T03:55:49.100Z,29.41
2017-05-01T03:56:59.394Z,29.32
2017-05-01T03:58:09.647Z,29.61
2017-05-01T03:59:19.606Z,29.51
2017-05-01T04:00:29.551Z,29.51
2017-05-01T04:01:39.807Z,29.69
2017-05-01T04:02:50.068Z,29.61
2017-05-01T04:04:00.023Z,29.61
2017-05-01T04:05:09.971Z,29.22
2017-05-01T04:06:20.234Z,30.08
2017-05-01T04:07:30.490Z,29.32
2017-05-01T04:08:40.438Z,29.51
2017-05-01T04:09:50.696Z,29.51
2017-05-01T04:11:00.642Z,29.61
2017-05-01T04:12:10.608Z,29.32
2017-05-01T04:13:20.562Z,29.32
2017-05-01T04:14:30.828Z,29.7
2017-05-01T04:15:40.769Z,29.41
2017-05-01T04:16:50.725Z,29.4
2017-05-01T04:18:00.353Z,29.41
2017-05-01T04:19:10.342Z,29.41
2017-05-01T04:20:20.604Z,29.22
2017-05-01T04:21:30.867Z,29.32
2017-05-01T04:22:40.808Z,29.99
2017-05-01T04:23:50.748Z,29.51
2017-05-01T04:25:00.707Z,29.61
2017-05-01T04:26:10.966Z,29.22
2017-05-01T04:27:21.227Z,29.99
2017-05-01T04:28:30.858Z,29.32
2017-05-01T04:29:41.122Z,29.9
2017-05-01T04:30:51.066Z,30.08
2017-05-01T04:32:01.009Z,29.9
2017-05-01T04:33:10.651Z,29.99
2017-05-01T04:34:20.912Z,29.9
2017-05-01T04:35:30.849Z,29.7
2017-05-01T04:36:40.799Z,29.69
2017-05-01T04:37:50.752Z,29.9
2017-05-01T04:39:01.020Z,29.7
2017-05-01T04:40:11.278Z,29.8
2017-05-01T04:41:20.908Z,29.32
2017-05-01T04:42:30.849Z,30.08
2017-05-01T04:43:40.797Z,29.9
2017-05-01T04:44:51.057Z,29.7
2017-05-01T04:46:01.320Z,30.08
2017-05-01T04:47:11.576Z,29.61
2017-05-01T04:48:21.520Z,29.99
2017-05-01T04:49:31.777Z,29.8
2017-05-01T04:50:41.408Z,29.32
2017-05-01T04:51:51.665Z,29.22
2017-05-01T04:53:01.920Z,29.61
2017-05-01T04:54:12.183Z,29.13
2017-05-01T04:55:22.457Z,29.7
2017-05-01T04:56:32.713Z,29.7
2017-05-01T04:57:42.657Z,29.7
2017-05-01T04:58:52.607Z,29.7
2017-05-01T05:00:02.870Z,29.61
2017-05-01T05:01:12.814Z,29.51
2017-05-01T05:02:22.132Z,29.9
2017-05-01T05:03:32.402Z,30.08
2017-05-01T05:04:42.662Z,29.8
2017-05-01T05:05:52.918Z,29.99
2017-05-01T05:07:02.856Z,29.9
2017-05-01T05:08:13.127Z,29.32
2017-05-01T05:09:23.074Z,29.99
2017-05-01T05:10:33.341Z,29.99
2017-05-01T05:11:43.594Z,29.8
2017-05-01T05:12:53.863Z,29.13
2017-05-01T05:14:04.133Z,29.99
2017-05-01T05:15:13.449Z,29.41
2017-05-01T05:16:23.715Z,29.61
2017-05-01T05:17:33.970Z,29.99
2017-05-01T05:18:44.228Z,29.61
2017-05-01T05:19:54.484Z,29.32
2017-05-01T05:21:04.751Z,29.32
2017-05-01T05:22:15.012Z,29.22
2017-05-01T05:23:25.278Z,29.41
2017-05-01T05:24:35.216Z,29.22
2017-05-01T05:25:45.470Z,29.22
2017-05-01T05:26:55.726Z,29.51
2017-05-01T05:28:05.990Z,29.62
2017-05-01T05:29:15.307Z,28.85
2017-05-01T05:30:25.247Z,29.62
2017-05-01T05:31:35.501Z,29.52
2017-05-01T05:32:45.761Z,29.52
2017-05-01T05:33:56.026Z,29.52
2017-05-01T05:35:06.288Z,29.51
2017-05-01T05:36:16.256Z,29.52
2017-05-01T05:37:26.515Z,29.43
2017-05-01T05:38:36.456Z,29.72
2017-05-01T05:39:46.401Z,29.43
2017-05-01T05:40:56.359Z,29.14
2017-05-01T05:42:06.611Z,29.62
2017-05-01T05:43:16.866Z,29.43
2017-05-01T05:44:26.814Z,29.41
2017-05-01T05:45:37.073Z,29.52
2017-05-01T05:46:46.700Z,29.41
2017-05-01T05:47:56.654Z,28.85
2017-05-01T05:49:06.615Z,29.52
2017-05-01T05:50:16.867Z,29.33
2017-05-01T05:51:26.811Z,29.43
2017-05-01T05:52:36.750Z,29.52
2017-05-01T05:53:46.379Z,28.95
2017-05-01T05:54:56.651Z,29.62
2017-05-01T05:56:06.609Z,28.75
2017-05-01T05:57:16.872Z,29.14
2017-05-01T05:58:27.134Z,29.52
2017-05-01T05:59:37.086Z,29.33
2017-05-01T06:00:47.029Z,29.62
2017-05-01T06:01:57.291Z,29.24
2017-05-01T06:03:07.589Z,29.33
2017-05-01T06:04:17.852Z,29.62
2017-05-01T06:05:28.104Z,29.43
2017-05-01T06:06:38.359Z,29.33
2017-05-01T06:07:48.298Z,29.33
2017-05-01T06:08:57.951Z,29.04
2017-05-01T06:10:07.898Z,29.52
2017-05-01T06:11:17.219Z,29.62
2017-05-01T06:12:27.169Z,29.14
2017-05-01T06:13:37.430Z,29.43
2017-05-01T06:14:47.373Z,29.04
2017-05-01T06:15:57.635Z,29.04
2017-05-01T06:17:07.576Z,29.62
2017-05-01T06:18:17.210Z,29.72
2017-05-01T06:19:27.158Z,29.72
2017-05-01T06:20:37.104Z,29.72
2017-05-01T06:21:47.048Z,29.52
2017-05-01T06:22:56.987Z,29.52
2017-05-01T06:24:07.249Z,29.04
2017-05-01T06:25:17.512Z,28.95
2017-05-01T06:26:27.773Z,29.43
2017-05-01T06:27:38.035Z,29.04
2017-05-01T06:28:48.293Z,29.14
2017-05-01T06:29:58.234Z,29.72
2017-05-01T06:31:08.175Z,30.39
2017-05-01T06:32:17.807Z,29.91
2017-05-01T06:33:28.071Z,29.91
2017-05-01T06:34:38.332Z,29.52
2017-05-01T06:35:47.963Z,30.02
2017-05-01T06:36:58.219Z,30.02
2017-05-01T06:38:08.165Z,29.33
2017-05-01T06:39:17.790Z,30.21
2017-05-01T06:40:27.426Z,30.39
2017-05-01T06:41:37.686Z,29.52
2017-05-01T06:42:47.627Z,29.81
2017-05-01T06:43:57.884Z,30.29
2017-05-01T06:45:07.828Z,29.83
2017-05-01T06:46:17.775Z,30.02
2017-05-01T06:47:27.087Z,30.21
2017-05-01T06:48:37.356Z,30.21
2017-05-01T06:49:47.305Z,30.11
2017-05-01T06:50:57.560Z,30.21
2017-05-01T06:52:07.821Z,30.21
2017-05-01T06:53:17.772Z,30.31
2017-05-01T06:54:28.038Z,29.35
2017-05-01T06:55:38.304Z,30.11
2017-05-01T06:56:48.585Z,30.39
2017-05-01T06:57:58.841Z,30.49
2017-05-01T06:59:08.779Z,30.19
2017-05-01T07:00:18.726Z,30.1
2017-05-01T07:01:28.670Z,30.29
2017-05-01T07:02:38.622Z,30.19
2017-05-01T07:03:48.570Z,30.29
2017-05-01T07:04:58.825Z,30.68
2017-05-01T07:06:09.087Z,30.49
2017-05-01T07:07:19.037Z,30.68
2017-05-01T07:08:29.301Z,30.77
2017-05-01T07:09:39.567Z,30.39
2017-05-01T07:10:49.825Z,30.5
2017-05-01T07:11:59.776Z,30.6
2017-05-01T07:13:10.034Z,30.68
2017-05-01T07:14:20.286Z,30.97
2017-05-01T07:15:30.240Z,30.87
2017-05-01T07:16:40.495Z,30.87
2017-05-01T07:17:50.442Z,30.77
2017-05-01T07:19:00.395Z,31.83
2017-05-01T07:20:10.349Z,31.45
2017-05-01T07:21:20.604Z,31.45
2017-05-01T07:22:30.861Z,31.06
2017-05-01T07:23:41.115Z,31.35
2017-05-01T07:24:51.061Z,31.45
2017-05-01T07:26:01.325Z,31.06
2017-05-01T07:27:11.589Z,31.45
2017-05-01T07:28:21.836Z,31.64
2017-05-01T07:29:32.102Z,31.45
2017-05-01T07:30:42.036Z,31.83
2017-05-01T07:31:52.297Z,31.06
2017-05-01T07:33:01.931Z,31.26
2017-05-01T07:34:12.189Z,31.26
2017-05-01T07:35:22.142Z,31.35
2017-05-01T07:36:32.405Z,31.64
2017-05-01T07:37:42.355Z,31.06
2017-05-01T07:38:51.674Z,31.06
2017-05-01T07:40:01.303Z,31.54
2017-05-01T07:41:11.565Z,30.97
2017-05-01T07:42:20.887Z,31.06
2017-05-01T07:43:31.146Z,30.87
2017-05-01T07:44:41.124Z,31.06
2017-05-01T07:45:51.378Z,30.97
2017-05-01T07:47:01.646Z,30.58
2017-05-01T07:48:11.903Z,30.97
2017-05-01T07:49:22.175Z,30.88
2017-05-01T07:50:31.804Z,30.88
2017-05-01T07:51:42.053Z,30.77
2017-05-01T07:52:52.319Z,30.97
2017-05-01T07:54:02.582Z,30.97
2017-05-01T07:55:12.847Z,31.08
2017-05-01T07:56:23.115Z,30.87
2017-05-01T07:57:33.065Z,30.87
2017-05-01T07:58:43.012Z,31.35
2017-05-01T07:59:53.270Z,31.08
2017-05-01T08:01:03.538Z,30.98
2017-05-01T08:02:13.489Z,31.08
2017-05-01T08:03:23.430Z,30.98
2017-05-01T08:04:33.378Z,30.98
2017-05-01T08:05:43.639Z,30.88
2017-05-01T08:06:53.265Z,30.68
2017-05-01T08:08:03.207Z,31.06
2017-05-01T08:09:12.851Z,30.79
2017-05-01T08:10:22.806Z,31.27
2017-05-01T08:11:33.072Z,31.08
2017-05-01T08:12:42.925Z,31.08
2017-05-01T08:13:53.187Z,30.88
2017-05-01T08:15:03.147Z,30.88
2017-05-01T08:16:12.778Z,30.98
2017-05-01T08:17:22.729Z,30.98
2017-05-01T08:18:33.015Z,30.98
2017-05-01T08:19:43.279Z,30.98
2017-05-01T08:20:53.228Z,30.98
2017-05-01T08:22:02.861Z,31.27
2017-05-01T08:23:12.507Z,31.37
2017-05-01T08:24:22.778Z,31.08
2017-05-01T08:25:32.730Z,30.88
2017-05-01T08:26:42.357Z,30.98
2017-05-01T08:27:52.619Z,31.18
2017-05-01T08:29:02.580Z,31.37
2017-05-01T08:30:12.214Z,30.69
2017-05-01T08:31:22.470Z,31.37
2017-05-01T08:32:32.423Z,31.37
2017-05-01T08:33:42.692Z,31.08
2017-05-01T08:34:52.955Z,31.18
2017-05-01T08:36:03.216Z,31.08
2017-05-01T08:37:12.847Z,31.18
2017-05-01T08:38:23.111Z,30.69
2017-05-01T08:39:33.377Z,31.08
2017-05-01T08:40:43.651Z,31.08
2017-05-01T08:41:53.597Z,30.88
2017-05-01T08:43:03.568Z,30.88
2017-05-01T08:44:13.525Z,30.88
2017-05-01T08:45:23.196Z,30.88
2017-05-01T08:46:33.452Z,30.79
2017-05-01T08:47:43.439Z,30.79
2017-05-01T08:48:53.388Z,30.79
2017-05-01T08:50:03.021Z,30.69
2017-05-01T08:51:12.971Z,30.79
2017-05-01T08:52:22.918Z,30.79
2017-05-01T08:53:32.871Z,30.69
2017-05-01T08:54:43.171Z,30.79
2017-05-01T08:55:53.431Z,30.69
2017-05-01T08:57:03.370Z,31.08
2017-05-01T08:58:13.314Z,31.46
2017-05-01T08:59:23.273Z,31.08
2017-05-01T09:00:33.534Z,31.37
2017-05-01T09:01:43.474Z,31.27
2017-05-01T09:02:53.727Z,31.27
2017-05-01T09:04:03.988Z,31.18
2017-05-01T09:05:13.646Z,31.27
2017-05-01T09:06:23.912Z,31.85
2017-05-01T09:07:34.171Z,31.65
2017-05-01T09:08:44.434Z,31.65
2017-05-01T09:09:54.700Z,30.88
2017-05-01T09:11:04.338Z,30.79
2017-05-01T09:12:14.605Z,30.79
2017-05-01T09:13:24.559Z,30.88
2017-05-01T09:14:34.201Z,30.88
2017-05-01T09:15:44.175Z,30.69
2017-05-01T09:16:53.797Z,30.6
2017-05-01T09:18:03.745Z,30.98
2017-05-01T09:19:13.391Z,30.88
2017-05-01T09:20:23.338Z,31.18
2017-05-01T09:21:33.591Z,31.08
2017-05-01T09:22:43.532Z,30.98
2017-05-01T09:23:53.783Z,31.18
2017-05-01T09:25:03.743Z,30.88
2017-05-01T09:26:13.995Z,30.98
2017-05-01T09:27:24.248Z,30.98
2017-05-01T09:28:34.195Z,31.18
2017-05-01T09:29:44.449Z,30.69
2017-05-01T09:30:54.397Z,31.65
2017-05-01T09:32:04.678Z,31.27
2017-05-01T09:33:14.933Z,30.11
2017-05-01T09:34:25.189Z,29.54
2017-05-01T09:35:34.820Z,29.62
2017-05-01T09:36:44.767Z,30.68
2017-05-01T09:37:54.752Z,31.18
2017-05-01T09:39:05.022Z,31.56
2017-05-01T09:40:14.661Z,31.46
2017-05-01T09:41:24.918Z,31.56
2017-05-01T09:42:34.862Z,31.46
2017-05-01T09:43:44.820Z,31.46
2017-05-01T09:44:55.087Z,31.65
2017-05-01T09:46:05.077Z,31.56
2017-05-01T09:47:15.015Z,31.85
2017-05-01T09:48:25.280Z,31.75
2017-05-01T09:49:35.252Z,31.75
2017-05-01T09:50:45.206Z,31.65
2017-05-01T09:51:54.520Z,31.95
2017-05-01T09:53:04.785Z,31.75
2017-05-01T09:54:14.746Z,31.85
2017-05-01T09:55:24.396Z,31.85
2017-05-01T09:56:34.027Z,31.85
2017-05-01T09:57:43.969Z,31.85
2017-05-01T09:58:53.600Z,32.04
2017-05-01T10:00:03.865Z,32.14
2017-05-01T10:01:14.129Z,32.04
2017-05-01T10:02:24.073Z,32.15
2017-05-01T10:03:34.026Z,32.15
2017-05-01T10:04:43.971Z,32.44
2017-05-01T10:05:54.220Z,32.06
2017-05-01T10:07:03.843Z,32.34
2017-05-01T10:08:13.813Z,32.34
2017-05-01T10:09:23.769Z,32.15
2017-05-01T10:10:33.728Z,32.34
2017-05-01T10:11:43.809Z,32.25
2017-05-01T10:12:54.304Z,32.15
2017-05-01T10:14:04.447Z,32.44
2017-05-01T10:15:14.414Z,32.44
2017-05-01T10:16:24.673Z,32.64
2017-05-01T10:17:34.614Z,32.34
2017-05-01T10:18:44.873Z,32.54
2017-05-01T10:19:55.131Z,32.82
2017-05-01T10:21:05.395Z,32.64
2017-05-01T10:22:15.348Z,32.82
2017-05-01T10:23:25.605Z,32.82
2017-05-01T10:24:35.258Z,33.21
2017-05-01T10:25:45.257Z,33.31
2017-05-01T10:26:55.198Z,33.79
2017-05-01T10:28:05.141Z,33.59
2017-05-01T10:29:15.094Z,33.4
2017-05-01T10:30:24.452Z,33.21
2017-05-01T10:31:34.708Z,33.59
2017-05-01T10:32:44.031Z,34.08
2017-05-01T10:33:54.296Z,33.89
2017-05-01T10:35:03.923Z,34.37
2017-05-01T10:36:13.867Z,34.46
2017-05-01T10:37:23.814Z,34.08
2017-05-01T10:38:33.768Z,34.37
2017-05-01T10:39:44.021Z,34.56
2017-05-01T10:40:53.670Z,34.37
2017-05-01T10:42:03.296Z,34.56
2017-05-01T10:43:13.562Z,34.46
2017-05-01T10:44:23.191Z,34.75
2017-05-01T10:45:33.348Z,35.04
2017-05-01T10:46:43.602Z,34.84
2017-05-01T10:47:53.565Z,34.56
2017-05-01T10:49:03.515Z,34.66
2017-05-01T10:50:13.451Z,34.66
2017-05-01T10:51:22.768Z,34.46
2017-05-01T10:52:32.407Z,34.37
2017-05-01T10:53:42.673Z,34.56
2017-05-01T10:54:52.614Z,34.56
2017-05-01T10:56:02.876Z,34.37
2017-05-01T10:57:13.141Z,34.46
2017-05-01T10:58:23.473Z,34.17
2017-05-01T10:59:33.218Z,34.75
2017-05-01T11:00:43.162Z,34.66
2017-05-01T11:01:53.418Z,34.46
2017-05-01T11:03:03.044Z,34.46
2017-05-01T11:04:13.309Z,34.17
2017-05-01T11:05:23.253Z,34.37
2017-05-01T11:06:33.508Z,34.17
2017-05-01T11:07:43.767Z,34.17
2017-05-01T11:08:53.408Z,34.75
2017-05-01T11:10:03.048Z,34.75
2017-05-01T11:11:13.337Z,34.27
2017-05-01T11:12:23.596Z,34.46
2017-05-01T11:13:33.856Z,34.75
2017-05-01T11:14:44.127Z,34.17
2017-05-01T11:15:53.764Z,34.27
2017-05-01T11:17:04.025Z,34.37
2017-05-01T11:18:13.966Z,34.27
2017-05-01T11:19:23.593Z,34.37
2017-05-01T11:20:33.846Z,34.46
2017-05-01T11:21:44.113Z,34.17
2017-05-01T11:22:54.061Z,34.56
2017-05-01T11:24:04.002Z,34.46
2017-05-01T11:25:13.633Z,34.37
2017-05-01T11:26:23.263Z,34.27
2017-05-01T11:27:33.544Z,34.27
2017-05-01T11:28:43.807Z,34.37
2017-05-01T11:29:53.435Z,34.37
2017-05-01T11:31:02.748Z,34.27
2017-05-01T11:32:13.007Z,34.08
2017-05-01T11:33:23.265Z,34.37
2017-05-01T11:34:33.520Z,34.17
2017-05-01T11:35:43.464Z,34.56
2017-05-01T11:36:53.404Z,34.27
2017-05-01T11:38:03.038Z,34.37
2017-05-01T11:39:12.986Z,34.08
2017-05-01T11:40:22.626Z,34.27
2017-05-01T11:41:32.877Z,33.98
2017-05-01T11:42:42.819Z,34.37
2017-05-01T11:43:52.766Z,34.08
2017-05-01T11:45:03.028Z,33.98
2017-05-01T11:46:12.658Z,34.37
2017-05-01T11:47:22.750Z,34.08
2017-05-01T11:48:32.578Z,33.98
2017-05-01T11:49:43.049Z,34.17
2017-05-01T11:50:52.832Z,34.27
2017-05-01T11:52:03.086Z,34.37
2017-05-01T11:53:12.719Z,34.08
2017-05-01T11:54:22.662Z,33.89
2017-05-01T11:55:32.605Z,34.08
2017-05-01T11:56:42.864Z,33.89
2017-05-01T11:57:52.805Z,34.17
2017-05-01T11:59:02.760Z,34.46
2017-05-01T12:00:13.046Z,34.37
2017-05-01T12:01:23.313Z,34.27
2017-05-01T12:02:33.566Z,34.37
2017-05-01T12:03:43.510Z,34.37
2017-05-01T12:04:53.154Z,34.17
2017-05-01T12:06:03.137Z,34.46
2017-05-01T12:07:13.404Z,34.37
2017-05-01T12:08:23.354Z,34.46
2017-05-01T12:09:33.301Z,34.37
2017-05-01T12:10:43.555Z,34.08
2017-05-01T12:11:53.502Z,34.46
2017-05-01T12:13:03.766Z,34.08
2017-05-01T12:14:13.752Z,34.17
2017-05-01T12:15:24.010Z,34.46
2017-05-01T12:16:34.267Z,34.46
2017-05-01T12:17:44.520Z,34.08
2017-05-01T12:18:54.469Z,34.08
2017-05-01T12:20:04.103Z,33.98
2017-05-01T12:21:14.043Z,34.08
2017-05-01T12:22:24.315Z,34.08
2017-05-01T12:23:34.574Z,34.08
2017-05-01T12:24:44.833Z,34.08
2017-05-01T12:25:54.776Z,33.98
2017-05-01T12:27:04.722Z,34.08
2017-05-01T12:28:14.979Z,34.17
2017-05-01T12:29:24.951Z,33.89
2017-05-01T12:30:34.899Z,34.37
2017-05-01T12:31:44.847Z,34.27
2017-05-01T12:32:54.801Z,33.98
2017-05-01T12:34:05.058Z,33.98
2017-05-01T12:35:14.698Z,33.79
2017-05-01T12:36:24.334Z,33.69
2017-05-01T12:37:34.598Z,33.98
2017-05-01T12:38:44.855Z,34.08
2017-05-01T12:39:55.121Z,34.08
2017-05-01T12:41:05.085Z,33.79
2017-05-01T12:42:15.027Z,33.79
2017-05-01T12:43:25.287Z,34.08
2017-05-01T12:44:34.917Z,33.89
2017-05-01T12:45:45.173Z,33.98
2017-05-01T12:46:55.435Z,33.98
2017-05-01T12:48:05.692Z,33.98
2017-05-01T12:49:15.635Z,33.98
2017-05-01T12:50:25.900Z,33.98
2017-05-01T12:51:35.843Z,33.89
2017-05-01T12:52:45.793Z,33.89
2017-05-01T12:53:56.065Z,34.66
2017-05-01T12:55:05.697Z,33.79
2017-05-01T12:56:15.321Z,33.89
2017-05-01T12:57:25.578Z,33.59
2017-05-01T12:58:35.525Z,33.89
2017-05-01T12:59:45.780Z,33.79
2017-05-01T13:00:55.726Z,34.08
2017-05-01T13:02:05.676Z,33.89
2017-05-01T13:03:14.982Z,33.98
2017-05-01T13:04:25.274Z,34.17
2017-05-01T13:05:35.538Z,34.08
2017-05-01T13:06:45.484Z,33.79
2017-05-01T13:07:55.426Z,34.08
2017-05-01T13:09:05.692Z,33.69
2017-05-01T13:10:15.639Z,34.17
2017-05-01T13:11:25.895Z,33.79
2017-05-01T13:12:35.844Z,33.69
2017-05-01T13:13:46.147Z,33.79
2017-05-01T13:14:56.409Z,33.79
2017-05-01T13:16:06.354Z,34.08
2017-05-01T13:17:16.604Z,34.08
2017-05-01T13:18:25.921Z,34.08
2017-05-01T13:19:35.872Z,34.08
2017-05-01T13:20:45.813Z,34.08
2017-05-01T13:21:56.083Z,33.98
2017-05-01T13:23:05.715Z,34.08
2017-05-01T13:24:14.722Z,33.89
2017-05-01T13:25:24.667Z,34.17
2017-05-01T13:26:34.615Z,34.08
2017-05-01T13:27:44.881Z,33.89
2017-05-01T13:28:55.140Z,33.89
2017-05-01T13:30:05.088Z,34.08
2017-05-01T13:31:14.722Z,33.98
2017-05-01T13:32:24.985Z,34.17
2017-05-01T13:33:35.247Z,34.17
2017-05-01T13:34:45.510Z,33.89
2017-05-01T13:35:55.806Z,33.89
2017-05-01T13:37:06.065Z,34.37
2017-05-01T13:38:15.419Z,34.27
2017-05-01T13:39:25.695Z,34.17
2017-05-01T13:40:35.640Z,34.17
2017-05-01T13:41:45.906Z,34.27
2017-05-01T13:42:55.537Z,33.79
2017-05-01T13:44:05.488Z,33.98
2017-05-01T13:45:15.444Z,33.89
2017-05-01T13:46:25.394Z,33.98
2017-05-01T13:47:35.345Z,34.37
2017-05-01T13:48:45.604Z,34.37
2017-05-01T13:49:55.557Z,33.98
2017-05-01T13:51:05.818Z,34.27
2017-05-01T13:52:15.770Z,34.56
2017-05-01T13:53:26.038Z,34.56
2017-05-01T13:54:36.300Z,34.08
2017-05-01T13:55:46.584Z,34.75
2017-05-01T13:56:56.842Z,34.17
2017-05-01T13:58:06.795Z,34.56
2017-05-01T13:59:16.748Z,34.37
2017-05-01T14:00:27.273Z,34.08
2017-05-01T14:01:37.215Z,34.46
2017-05-01T14:02:47.480Z,34.27
2017-05-01T14:03:57.752Z,34.46
2017-05-01T14:05:07.384Z,34.27
2017-05-01T14:06:17.333Z,34.66
2017-05-01T14:07:27.588Z,34.27
2017-05-01T14:08:37.856Z,34.08
2017-05-01T14:09:48.119Z,34.67
2017-05-01T14:10:58.388Z,34.67
2017-05-01T14:12:08.371Z,34.38
2017-05-01T14:13:18.633Z,34.58
2017-05-01T14:14:28.890Z,34.77
2017-05-01T14:15:38.844Z,34.19
2017-05-01T14:16:48.789Z,34.58
2017-05-01T14:17:58.745Z,34.29
2017-05-01T14:19:09.011Z,34.37
2017-05-01T14:20:18.967Z,34.66
2017-05-01T14:21:28.602Z,34.46
2017-05-01T14:22:38.552Z,34.29
2017-05-01T14:23:48.540Z,34.56
2017-05-01T14:24:58.803Z,34.75
2017-05-01T14:26:08.746Z,34.75
2017-05-01T14:27:19.025Z,34.66
2017-05-01T14:28:28.658Z,34.75
2017-05-01T14:29:38.950Z,34.46
2017-05-01T14:30:48.896Z,34.66
2017-05-01T14:31:59.160Z,34.66
2017-05-01T14:33:09.425Z,34.66
2017-05-01T14:34:18.782Z,34.46
2017-05-01T14:35:29.049Z,34.17
2017-05-01T14:36:39.000Z,34.46
2017-05-01T14:37:49.261Z,34.66
2017-05-01T14:38:58.902Z,34.66
2017-05-01T14:40:08.852Z,34.37
2017-05-01T14:41:18.848Z,34.66
2017-05-01T14:42:28.790Z,34.27
2017-05-01T14:43:38.423Z,34.37
2017-05-01T14:44:48.681Z,34.46
2017-05-01T14:45:58.624Z,34.75
2017-05-01T14:47:08.908Z,34.27
2017-05-01T14:48:18.861Z,34.27
2017-05-01T14:49:28.823Z,34.46
2017-05-01T14:50:38.461Z,34.66
2017-05-01T14:51:48.718Z,34.37
2017-05-01T14:52:58.669Z,34.37
2017-05-01T14:54:08.929Z,35.04
2017-05-01T14:55:18.559Z,34.27
2017-05-01T14:56:28.812Z,34.37
2017-05-01T14:57:39.077Z,34.56
2017-05-01T14:58:49.027Z,34.66
2017-05-01T14:59:59.282Z,34.27
2017-05-01T15:01:09.223Z,34.27
2017-05-01T15:02:19.478Z,34.46
2017-05-01T15:03:29.114Z,34.66
2017-05-01T15:04:39.368Z,35.04